Terminal Aerodrome Forecast
Issued by NWS Topeka, KS

Home | Current Version | Previous Version | Text Only | Print | Product List | Glossary On
Versions: 1 2 3 4 5 6 7 8 9 10 11 12 13 14 15 16
774
FTUS43 KTOP 150541
TAFTOP
TAF
KTOP 150541Z 1506/1606 23005KT P6SM BKN250
     FM150800 19008KT P6SM SCT020 OVC100 WS015/24050KT
     FM151200 22010KT P6SM OVC100
     FM151800 31012KT P6SM SCT100 BKN250
     FM160100 35016G26KT P6SM BKN080=

USA.gov is the U.S. government's official web portal to all federal, state and local government web resources and services.